createdAt,value
2022-11-05T13:56:26.832Z,97671.66
2022-11-05T13:59:03.712Z,97670.34
2022-11-05T14:01:42.581Z,97666.44
2022-11-05T14:04:14.780Z,97666.34
2022-11-05T14:06:41.831Z,97662.78
2022-11-05T14:09:10.319Z,97665.94
2022-11-05T14:11:40.642Z,97655.41
2022-11-05T14:14:08.871Z,97659.13
2022-11-05T14:16:48.132Z,97657.91
2022-11-05T14:19:29.662Z,97654.19
2022-11-05T14:21:56.953Z,97654.66
2022-11-05T14:24:41.701Z,97654.72
2022-11-05T14:27:48.192Z,97650.78
2022-11-05T14:30:41.648Z,97658.03
2022-11-05T14:33:17.250Z,97653.81
2022-11-05T14:35:46.610Z,97655.66
2022-11-05T14:38:22.491Z,97648.66
2022-11-05T14:40:49.773Z,97654.31
2022-11-05T14:43:20.773Z,97668.22
2022-11-05T14:45:57.074Z,97654.97
2022-11-05T14:48:30.190Z,97655.06
2022-11-05T14:50:57.674Z,97642.75
2022-11-05T14:53:26.849Z,97650.91
2022-11-05T14:55:58.694Z,97658.97
2022-11-05T14:58:33.285Z,97660.75
2022-11-05T15:01:02.079Z,97662.97
2022-11-05T15:03:59.755Z,97657.09
2022-11-05T15:06:28.809Z,97655.94
2022-11-05T15:09:18.628Z,97661.78
2022-11-05T15:11:58.807Z,97664.72
2022-11-05T15:14:28.067Z,97660.50
2022-11-05T15:17:09.238Z,97659.03
2022-11-05T15:19:36.343Z,97660.75
2022-11-05T15:22:05.731Z,97653.91
2022-11-05T15:24:33.533Z,97655.97
2022-11-05T15:27:04.448Z,97651.69
2022-11-05T15:29:31.629Z,97657.31
2022-11-05T15:32:00.151Z,97654.47
2022-11-05T15:34:28.607Z,97644.31
2022-11-05T15:36:57.034Z,97648.22
2022-11-05T15:39:30.138Z,97641.09
2022-11-05T15:41:57.922Z,97652.75
2022-11-05T15:44:26.849Z,97653.31
2022-11-05T15:47:15.291Z,97658.63
2022-11-05T15:49:43.031Z,97668.19
2022-11-05T15:52:14.949Z,97674.63
2022-11-05T15:54:42.335Z,97678.78
2022-11-05T15:57:22.545Z,97673.84
2022-11-05T15:59:49.881Z,97667.38
